Time;durP1;ratioP1;P1;durP2;ratioP2;P2;SDS_P1;SDS_P2;PMS_P1;PMS_P2;Temp;Humidity;BMP_temperature;BMP_pressure;BME280_temperature;BME280_humidity;BME280_pressure;Samples;Min_cycle;Max_cycle;Signal;HPM_P1;HPM_P2
2021/09/19 00:01:07;;;;;;;4.20;3.80;;;6.50;99.90;;;6.98;100.00;94842.00;2363344;55;26229;-58
2021/09/19 00:03:54;;;;;;;4.33;3.93;;;6.40;99.90;;;6.86;100.00;94845.00;2464415;55;26656;-59
2021/09/19 00:06:40;;;;;;;5.20;4.40;;;6.30;99.90;;;6.72;100.00;94837.00;2241201;56;26150;-58
2021/09/19 00:09:27;;;;;;;5.93;4.03;;;6.30;99.90;;;6.66;100.00;94832.00;2388624;55;26137;-60
2021/09/19 00:12:13;;;;;;;4.80;4.30;;;6.20;99.90;;;6.65;100.00;94836.00;2455366;55;26214;-57
2021/09/19 00:15:00;;;;;;;10.40;4.27;;;6.20;99.90;;;6.63;100.00;94832.00;2239758;56;26427;-58
2021/09/19 00:17:47;;;;;;;4.67;4.00;;;6.10;99.90;;;6.59;100.00;94823.00;2240038;56;26138;-58
2021/09/19 00:20:34;;;;;;;5.13;4.20;;;6.10;99.90;;;6.67;100.00;94818.00;2357305;55;26169;-58
2021/09/19 00:23:20;;;;;;;4.73;4.23;;;6.30;99.90;;;6.81;100.00;94817.00;2241186;56;26102;-58
2021/09/19 00:26:07;;;;;;;5.47;4.43;;;6.40;99.90;;;6.91;100.00;94818.00;2240848;56;26221;-58
2021/09/19 00:28:53;;;;;;;5.77;4.37;;;6.30;99.90;;;6.81;100.00;94819.00;2464894;55;26581;-58
2021/09/19 00:31:40;;;;;;;5.07;4.33;;;6.20;99.90;;;6.63;100.00;94822.00;2241196;56;26101;-58
2021/09/19 00:34:26;;;;;;;5.17;4.53;;;6.10;99.90;;;6.52;100.00;94817.00;2464868;55;26674;-59
2021/09/19 00:37:12;;;;;;;5.37;4.00;;;6.10;99.90;;;6.58;100.00;94808.00;2240988;56;26642;-57
2021/09/19 00:39:59;;;;;;;5.17;4.37;;;6.20;99.90;;;6.69;100.00;94811.00;2464625;55;26110;-59
2021/09/19 00:42:46;;;;;;;4.60;4.10;;;6.10;99.90;;;6.48;100.00;94813.00;2241305;56;26078;-58
2021/09/19 00:45:33;;;;;;;5.77;4.20;;;5.90;99.90;;;6.42;100.00;94811.00;2240698;56;26158;-60
2021/09/19 00:48:19;;;;;;;4.77;4.27;;;6.10;99.90;;;6.54;100.00;94802.00;2240988;56;27089;-58
2021/09/19 00:51:05;;;;;;;4.97;4.07;;;6.10;99.90;;;6.65;100.00;94802.00;2241091;56;26252;-58
2021/09/19 00:53:52;;;;;;;10.30;4.83;;;6.20;99.90;;;6.63;100.00;94811.00;2337662;55;26530;-58
2021/09/19 00:56:41;;;;;;;4.70;4.20;;;6.30;99.90;;;6.73;100.00;94807.00;2241033;56;26214;-58
2021/09/19 00:59:30;;;;;;;7.27;4.43;;;6.20;99.90;;;6.73;100.00;94801.00;2291323;55;26656;-58
2021/09/19 01:02:17;;;;;;;5.40;4.37;;;6.10;99.90;;;6.55;100.00;94804.00;2457475;55;26553;-58
2021/09/19 01:05:06;;;;;;;4.70;3.80;;;6.00;99.90;;;6.40;100.00;94798.00;2464552;55;26166;-58
2021/09/19 01:07:53;;;;;;;5.90;4.70;;;5.90;99.90;;;6.25;100.00;94797.00;2464742;55;26158;-58
2021/09/19 01:10:41;;;;;;;8.77;5.03;;;5.80;99.90;;;6.19;100.00;94803.00;2240006;56;26134;-58
2021/09/19 01:13:28;;;;;;;7.27;4.83;;;5.70;99.90;;;6.22;100.00;94801.00;2241079;56;26142;-58
2021/09/19 01:16:18;;;;;;;7.83;5.80;;;5.90;99.90;;;6.42;100.00;94792.00;2415781;55;26182;-58
2021/09/19 01:19:12;;;;;;;11.47;6.13;;;6.00;99.90;;;6.54;100.00;94796.00;2239801;56;26254;-58
2021/09/19 01:22:00;;;;;;;7.17;5.63;;;5.90;99.90;;;6.45;100.00;94797.00;2241209;56;26130;-58
2021/09/19 01:24:46;;;;;;;8.43;6.17;;;5.80;99.90;;;6.29;100.00;94795.00;2464556;55;26569;-58
2021/09/19 01:27:33;;;;;;;7.93;5.23;;;5.70;99.90;;;6.25;100.00;94786.00;2383545;55;26090;-59
2021/09/19 01:30:19;;;;;;;6.07;4.87;;;5.70;99.90;;;6.16;100.00;94785.00;2241033;56;26197;-58
2021/09/19 01:33:06;;;;;;;6.10;5.23;;;5.70;99.90;;;6.18;100.00;94780.00;2240920;56;26872;-58
2021/09/19 01:35:55;;;;;;;5.30;4.70;;;5.60;99.90;;;6.09;100.00;94778.00;2240571;56;26234;-58
2021/09/19 01:38:43;;;;;;;8.33;5.30;;;5.60;99.90;;;6.03;100.00;94781.00;2247792;56;26593;-59
2021/09/19 01:41:30;;;;;;;7.37;5.10;;;5.50;99.90;;;5.92;100.00;94774.00;2240374;56;26209;-58
2021/09/19 01:44:16;;;;;;;7.67;5.10;;;5.50;99.90;;;5.99;100.00;94768.00;2239896;56;26234;-58
2021/09/19 01:47:04;;;;;;;6.17;4.90;;;5.40;99.90;;;5.96;100.00;94768.00;2239376;56;26149;-58
2021/09/19 01:49:51;;;;;;;5.43;4.70;;;5.40;99.90;;;5.83;100.00;94765.00;2245701;56;26153;-58
2021/09/19 01:52:38;;;;;;;7.67;4.80;;;5.30;99.90;;;5.73;100.00;94766.00;2240798;56;26683;-58
2021/09/19 01:55:25;;;;;;;8.43;5.50;;;5.30;99.90;;;5.72;100.00;94762.00;2239604;56;26682;-58
2021/09/19 01:58:11;;;;;;;7.50;5.70;;;5.30;99.90;;;5.60;100.00;94754.00;2240397;56;26223;-58
2021/09/19 02:00:59;;;;;;;6.63;5.50;;;5.20;99.90;;;5.67;100.00;94768.00;2257978;56;26145;-59
2021/09/19 02:03:45;;;;;;;6.77;5.57;;;5.30;99.90;;;5.87;100.00;94764.00;2391560;55;26170;-58
2021/09/19 02:06:32;;;;;;;6.10;4.93;;;5.50;99.90;;;6.04;100.00;94768.00;2241184;56;26158;-58
2021/09/19 02:09:18;;;;;;;6.33;5.10;;;5.60;99.90;;;6.13;100.00;94754.00;2241056;56;26110;-58
2021/09/19 02:12:07;;;;;;;4.50;4.10;;;5.60;99.90;;;6.11;100.00;94762.00;2241198;56;26985;-58
2021/09/19 02:14:53;;;;;;;4.87;4.37;;;5.50;99.90;;;5.89;100.00;94759.00;2239973;56;26242;-59
2021/09/19 02:17:40;;;;;;;5.30;4.67;;;5.30;99.90;;;5.75;100.00;94746.00;2240021;56;26923;-58
2021/09/19 02:20:27;;;;;;;5.93;4.83;;;5.30;99.90;;;5.79;100.00;94756.00;2239855;56;26702;-58
2021/09/19 02:23:14;;;;;;;4.97;4.47;;;5.20;99.90;;;5.65;100.00;94755.00;2240352;56;26233;-57
2021/09/19 02:26:02;;;;;;;5.43;4.90;;;5.20;99.90;;;5.61;100.00;94746.00;2249510;56;26676;-58
2021/09/19 02:28:48;;;;;;;7.00;4.70;;;5.30;99.90;;;5.84;100.00;94743.00;2239890;56;26198;-59
2021/09/19 02:31:35;;;;;;;5.10;4.60;;;5.40;99.90;;;5.87;100.00;94746.00;2279066;55;26686;-58
2021/09/19 02:34:22;;;;;;;5.67;4.60;;;5.40;99.90;;;5.91;100.00;94747.00;2241666;56;26181;-60
2021/09/19 02:37:09;;;;;;;4.60;4.20;;;5.50;99.90;;;6.05;100.00;94736.00;2240163;56;26246;-59
2021/09/19 02:39:55;;;;;;;6.33;4.30;;;5.50;99.90;;;5.98;100.00;94732.00;2251297;56;26113;-59
2021/09/19 02:42:43;;;;;;;6.23;4.00;;;5.50;99.90;;;6.04;100.00;94721.00;2241425;56;26190;-59
2021/09/19 02:45:29;;;;;;;7.60;4.13;;;5.50;99.90;;;5.98;100.00;94706.00;2464920;55;26122;-57
2021/09/19 02:48:16;;;;;;;4.90;3.87;;;5.40;99.90;;;5.85;100.00;94710.00;2241247;56;26166;-57
2021/09/19 02:51:02;;;;;;;5.60;4.00;;;5.30;99.90;;;5.76;100.00;94706.00;2455643;55;26539;-57
2021/09/19 02:53:49;;;;;;;5.97;4.20;;;5.30;99.90;;;5.73;100.00;94705.00;2240132;56;26583;-56
2021/09/19 02:56:36;;;;;;;5.97;4.77;;;5.20;99.90;;;5.60;100.00;94702.00;2240254;56;26141;-56
2021/09/19 02:59:23;;;;;;;7.00;4.90;;;5.20;99.90;;;5.54;100.00;94697.00;2240353;56;26157;-56
2021/09/19 03:02:09;;;;;;;7.47;5.27;;;5.20;99.90;;;5.60;100.00;94696.00;2239727;56;26221;-57
2021/09/19 03:04:56;;;;;;;12.60;5.47;;;5.20;99.90;;;5.57;100.00;94697.00;2239973;56;26684;-57
2021/09/19 03:10:42;;;;;;;20.33;7.10;;;5.20;99.90;;;5.72;100.00;94669.00;2319165;52;32935;-56
2021/09/19 03:13:28;;;;;;;8.50;6.87;;;5.20;99.90;;;5.65;100.00;94684.00;2314492;54;26880;-56
2021/09/19 03:16:15;;;;;;;10.13;6.77;;;5.30;99.90;;;5.74;100.00;94683.00;2345374;53;26599;-57
2021/09/19 03:19:02;;;;;;;10.83;7.20;;;5.40;99.90;;;5.93;100.00;94675.00;2313788;54;26205;-56
2021/09/19 03:21:49;;;;;;;13.23;6.20;;;5.40;99.90;;;5.91;100.00;94673.00;2314079;54;26158;-57
2021/09/19 03:24:36;;;;;;;19.07;6.43;;;5.40;99.90;;;5.79;100.00;94660.00;2310219;54;26192;-56
2021/09/19 03:27:23;;;;;;;8.43;5.83;;;5.30;99.90;;;5.60;100.00;94665.00;2289056;55;26254;-57
2021/09/19 03:30:14;;;;;;;9.60;5.87;;;5.10;99.90;;;5.42;100.00;94668.00;2288815;55;26112;-57
2021/09/19 03:33:00;;;;;;;7.73;6.10;;;5.10;99.90;;;5.31;100.00;94678.00;2289592;55;26611;-57
2021/09/19 03:35:46;;;;;;;7.07;6.07;;;5.00;99.90;;;5.23;100.00;94677.00;2428360;54;26135;-56
2021/09/19 03:38:33;;;;;;;7.87;5.90;;;5.00;99.90;;;5.29;100.00;94677.00;2389124;55;26184;-55
2021/09/19 03:41:19;;;;;;;8.00;5.60;;;5.00;99.90;;;5.42;100.00;94681.00;2263157;55;26136;-56
2021/09/19 03:44:08;;;;;;;8.03;5.30;;;5.10;99.90;;;5.53;100.00;94675.00;2262856;55;26145;-57
2021/09/19 03:46:54;;;;;;;6.43;5.50;;;5.00;99.90;;;5.43;100.00;94677.00;2514073;53;26190;-57
2021/09/19 03:49:40;;;;;;;7.23;5.40;;;5.00;99.90;;;5.47;100.00;94676.00;2387115;53;26672;-57
2021/09/19 03:52:27;;;;;;;7.53;5.70;;;5.00;99.90;;;5.53;100.00;94674.00;2316788;54;26186;-56
2021/09/19 03:55:13;;;;;;;5.97;4.87;;;4.90;99.90;;;5.41;100.00;94674.00;2315954;54;26846;-56
2021/09/19 03:58:01;;;;;;;8.60;4.50;;;4.90;99.90;;;5.41;100.00;94668.00;2318635;54;26104;-56
2021/09/19 04:00:47;;;;;;;5.30;4.67;;;4.90;99.90;;;5.45;100.00;94670.00;2525084;54;26507;-57
2021/09/19 04:03:34;;;;;;;5.07;4.43;;;4.80;99.90;;;5.29;100.00;94667.00;2290941;55;26099;-56
2021/09/19 04:06:21;;;;;;;6.50;4.90;;;4.80;99.90;;;5.31;100.00;94665.00;2525572;54;26183;-57
2021/09/19 04:09:07;;;;;;;5.77;4.90;;;4.80;99.90;;;5.22;100.00;94658.00;2525207;54;26139;-57
2021/09/19 04:11:55;;;;;;;20.17;6.87;;;4.70;99.90;;;5.06;100.00;94661.00;2525527;54;26235;-57
2021/09/19 04:14:42;;;;;;;6.57;5.70;;;4.70;99.90;;;4.99;100.00;94666.00;2291231;55;26523;-56
2021/09/19 04:17:28;;;;;;;33.83;6.23;;;4.60;99.90;;;4.98;100.00;94664.00;2301545;54;26563;-55
2021/09/19 04:20:15;;;;;;;29.57;6.63;;;4.70;99.90;;;5.04;100.00;94664.00;2290472;55;26092;-56
2021/09/19 04:23:02;;;;;;;11.40;5.87;;;4.70;99.90;;;5.19;100.00;94669.00;2361030;54;26598;-60
2021/09/19 04:25:48;;;;;;;9.20;6.30;;;4.70;99.90;;;4.95;100.00;94682.00;2310559;55;26126;-55
2021/09/19 04:28:35;;;;;;;7.87;6.10;;;4.50;99.90;;;4.82;100.00;94680.00;2316103;55;26126;-57
2021/09/19 04:31:21;;;;;;;6.53;5.23;;;4.60;99.90;;;5.04;100.00;94684.00;2555720;54;26094;-56
2021/09/19 04:34:07;;;;;;;7.63;5.30;;;4.70;99.90;;;5.17;100.00;94675.00;2315714;55;26097;-57
2021/09/19 04:36:54;;;;;;;6.37;4.83;;;4.80;99.90;;;5.33;100.00;94676.00;2316012;55;26190;-56
2021/09/19 04:39:41;;;;;;;14.57;5.10;;;4.90;99.90;;;5.37;100.00;94673.00;2316066;55;26135;-57
2021/09/19 04:42:27;;;;;;;14.17;6.00;;;4.80;99.90;;;5.17;100.00;94678.00;2553856;54;26145;-57
2021/09/19 04:45:14;;;;;;;7.50;5.40;;;4.60;99.90;;;4.96;100.00;94678.00;2294361;55;26234;-57
2021/09/19 04:48:00;;;;;;;10.60;5.60;;;4.60;99.90;;;4.85;100.00;94684.00;2529768;54;26112;-57
2021/09/19 04:50:47;;;;;;;6.87;4.70;;;4.40;99.90;;;4.72;100.00;94681.00;2529648;54;26131;-57
2021/09/19 04:53:33;;;;;;;5.20;4.70;;;4.40;99.90;;;4.72;100.00;94692.00;2294308;55;26543;-57
2021/09/19 04:56:20;;;;;;;5.20;4.70;;;4.30;99.90;;;4.72;100.00;94691.00;2360829;54;26159;-57
2021/09/19 04:59:06;;;;;;;4.70;4.30;;;4.30;99.90;;;4.75;100.00;94691.00;2294508;55;26180;-57
2021/09/19 05:01:53;;;;;;;4.80;4.30;;;4.30;99.90;;;4.63;100.00;94689.00;2294204;55;26120;-55
2021/09/19 05:04:39;;;;;;;4.90;4.47;;;4.30;99.90;;;4.63;100.00;94685.00;2529794;54;26555;-57
2021/09/19 05:07:25;;;;;;;4.67;4.27;;;4.30;99.90;;;4.78;100.00;94694.00;2468200;54;26171;-57
2021/09/19 05:10:12;;;;;;;6.27;4.30;;;4.40;99.90;;;4.85;100.00;94692.00;2529776;54;26443;-57
2021/09/19 05:12:59;;;;;;;4.30;3.90;;;4.60;99.90;;;5.06;100.00;94689.00;2294333;55;26595;-56
2021/09/19 05:15:45;;;;;;;4.23;3.83;;;4.70;99.90;;;5.22;100.00;94689.00;2529397;54;26088;-57
2021/09/19 05:18:31;;;;;;;4.23;3.50;;;4.60;99.90;;;5.08;100.00;94691.00;2293371;55;26124;-56
2021/09/19 05:21:18;;;;;;;3.90;3.50;;;4.50;99.90;;;4.88;100.00;94683.00;2293668;54;26656;-56
2021/09/19 05:27:03;;;;;;;3.50;3.20;;;4.60;99.90;;;5.33;100.00;94665.00;2248276;54;33356;-56
2021/09/19 05:29:50;;;;;;;3.70;3.40;;;4.80;99.90;;;5.38;100.00;94679.00;2253704;54;26128;-56
2021/09/19 05:32:36;;;;;;;3.30;3.00;;;4.90;99.90;;;5.45;100.00;94683.00;2267002;55;26073;-56
2021/09/19 05:35:23;;;;;;;4.90;3.37;;;4.90;99.90;;;5.48;100.00;94677.00;2266749;55;26271;-56
2021/09/19 05:38:09;;;;;;;3.63;3.33;;;5.00;99.90;;;5.54;100.00;94680.00;2266846;55;26220;-58
2021/09/19 05:40:56;;;;;;;3.53;3.23;;;5.00;99.90;;;5.51;100.00;94676.00;2266849;55;26169;-57
2021/09/19 05:43:42;;;;;;;3.77;3.40;;;4.90;99.90;;;5.40;100.00;94679.00;2489436;55;26906;-58
2021/09/19 05:46:29;;;;;;;3.40;3.10;;;4.90;99.90;;;5.41;100.00;94681.00;2246363;56;26210;-58
2021/09/19 05:52:12;;;;;;;3.60;3.30;;;5.10;99.90;;;5.73;100.00;94665.00;2284544;54;33220;-56
2021/09/19 05:54:59;;;;;;;3.63;3.33;;;5.10;99.90;;;5.62;100.00;94684.00;2516061;55;26094;-57
2021/09/19 05:57:46;;;;;;;3.60;3.30;;;5.10;99.90;;;5.61;100.00;94683.00;2257823;56;26177;-57
2021/09/19 06:00:32;;;;;;;3.20;2.90;;;5.20;99.90;;;5.77;100.00;94676.00;2341963;54;26191;-57
2021/09/19 06:03:18;;;;;;;3.67;3.37;;;5.40;99.90;;;6.04;100.00;94680.00;2272082;55;26521;-57
2021/09/19 06:06:06;;;;;;;3.97;3.40;;;5.50;99.90;;;6.16;100.00;94683.00;2254238;56;26722;-56
2021/09/19 06:08:52;;;;;;;4.53;3.33;;;5.60;99.90;;;6.17;100.00;94678.00;2267010;55;26153;-57
2021/09/19 06:11:41;;;;;;;3.50;3.20;;;5.70;99.90;;;6.20;100.00;94669.00;2266063;55;26745;-56
2021/09/19 06:14:27;;;;;;;4.00;3.63;;;5.70;99.90;;;6.26;100.00;94670.00;2315632;55;26147;-56
2021/09/19 06:17:13;;;;;;;4.33;3.60;;;5.80;99.90;;;6.29;100.00;94670.00;2271175;55;26258;-57
2021/09/19 06:20:00;;;;;;;4.40;3.67;;;5.90;99.90;;;6.50;100.00;94670.00;2262244;55;26718;-58
2021/09/19 06:22:47;;;;;;;4.13;3.73;;;6.10;99.90;;;6.72;100.00;94667.00;2262654;55;26593;-56
2021/09/19 06:25:33;;;;;;;4.63;3.83;;;6.20;99.90;;;6.80;100.00;94664.00;2290324;55;26641;-57
2021/09/19 06:28:20;;;;;;;3.93;3.60;;;6.40;99.90;;;6.98;100.00;94654.00;2263319;55;26139;-57
2021/09/19 06:31:06;;;;;;;5.83;4.23;;;6.50;99.90;;;7.09;100.00;94659.00;2262303;55;26231;-57
2021/09/19 06:33:53;;;;;;;5.23;4.47;;;6.70;99.90;;;7.24;100.00;94660.00;2262277;55;26187;-58
2021/09/19 06:36:40;;;;;;;6.37;4.77;;;6.80;99.90;;;7.41;100.00;94651.00;2264643;55;26246;-57
2021/09/19 06:39:26;;;;;;;5.47;4.97;;;7.00;99.90;;;7.61;100.00;94643.00;2262722;55;26616;-57
2021/09/19 06:42:13;;;;;;;5.20;4.70;;;7.20;99.90;;;7.90;100.00;94657.00;2281236;55;26682;-56
2021/09/19 06:45:00;;;;;;;6.13;4.97;;;7.50;99.90;;;8.35;100.00;94648.00;2259579;56;26703;-57
2021/09/19 06:47:46;;;;;;;5.60;5.10;;;8.10;99.90;;;9.24;100.00;94653.00;2262736;55;26130;-57
2021/09/19 06:50:33;;;;;;;6.07;5.47;;;9.10;99.90;;;10.66;100.00;94653.00;2491987;55;26613;-57
2021/09/19 06:53:19;;;;;;;4.40;4.00;;;10.30;99.90;;;12.18;100.00;94626.00;2259155;55;26146;-57
2021/09/19 06:56:06;;;;;;;4.00;3.60;;;11.30;99.90;;;13.57;100.00;94613.00;2224423;56;26657;-58
2021/09/19 06:58:52;;;;;;;4.93;3.83;;;12.90;99.90;;;16.01;100.00;94620.00;2436613;57;26161;-57
2021/09/19 07:01:39;;;;;;;3.42;3.12;;;15.10;99.90;;;18.89;100.00;94610.00;2233617;56;26237;-58
2021/09/19 07:04:25;;;;;;;4.22;3.85;;;17.10;99.90;;;21.04;100.00;94603.00;2466396;56;26227;-58
2021/09/19 07:07:12;;;;;;;4.50;3.65;;;18.60;99.90;;;22.10;100.00;94598.00;2242172;57;26174;-58
2021/09/19 07:09:59;;;;;;;3.70;3.40;;;19.50;99.90;;;22.81;100.00;94600.00;2466254;56;26593;-58
2021/09/19 07:15:44;;;;;;;5.68;5.18;;;20.70;99.90;;;24.83;96.59;94601.00;2244088;54;33277;-55
2021/09/19 07:18:30;;;;;;;3.60;3.30;;;21.30;99.90;;;24.96;84.81;94595.00;2246516;56;26773;-56
2021/09/19 07:21:17;;;;;;;3.85;3.55;;;21.80;99.90;;;25.01;90.61;94603.00;2479462;55;26113;-56
2021/09/19 07:24:03;;;;;;;3.80;3.50;;;22.40;99.90;;;25.78;80.75;94595.00;2483433;55;26245;-57
2021/09/19 07:26:49;;;;;;;3.75;3.45;;;21.80;99.90;;;24.68;86.06;94605.00;2248583;55;26173;-57
2021/09/19 07:29:37;;;;;;;3.80;3.42;;;21.60;99.90;;;25.26;86.67;94598.00;2292344;55;26666;-57
2021/09/19 07:32:24;;;;;;;3.60;3.30;;;21.70;99.90;;;25.00;89.04;94588.00;2292127;56;26216;-57
2021/09/19 07:35:11;;;;;;;3.60;3.30;;;22.20;99.90;;;25.92;77.43;94588.00;2295437;55;25089;-56
2021/09/19 07:38:00;;;;;;;3.55;3.20;;;23.10;99.90;;;26.36;81.53;94585.00;2291454;55;26132;-56
2021/09/19 07:40:47;;;;;;;3.30;3.10;;;22.70;99.90;;;25.98;85.33;94595.00;2391018;55;25058;-57
2021/09/19 07:43:34;;;;;;;3.50;3.20;;;22.50;99.90;;;25.97;84.78;94589.00;2291719;56;26215;-57
2021/09/19 07:46:23;;;;;;;3.53;2.95;;;22.50;99.90;;;26.33;79.52;94592.00;2292020;55;25061;-56
2021/09/19 07:49:10;;;;;;;3.20;3.00;;;23.30;99.90;;;27.04;75.28;94590.00;2290700;55;26269;-56
2021/09/19 07:51:57;;;;;;;3.42;2.83;;;23.40;99.90;;;27.65;71.91;94582.00;2295595;55;25074;-56
2021/09/19 07:54:44;;;;;;;2.92;2.70;;;23.60;99.90;;;27.86;74.17;94587.00;2382004;55;25101;-56
2021/09/19 07:57:30;;;;;;;2.72;2.53;;;24.00;99.90;;;27.88;73.13;94596.00;2271608;55;25725;-57
2021/09/19 08:00:18;;;;;;;2.70;2.50;;;24.50;99.90;;;28.49;69.49;94588.00;2272593;55;25133;-57
2021/09/19 08:03:04;;;;;;;2.80;2.60;;;24.60;99.90;;;27.89;66.99;94594.00;2265671;56;25077;-56
2021/09/19 08:08:49;;;;;;;2.65;2.45;;;25.40;99.90;;;29.39;66.46;94579.00;2246140;54;32346;-58
2021/09/19 08:11:35;;;;;;;3.25;2.62;;;25.90;99.90;;;29.45;61.24;94573.00;2251966;56;25617;-56
2021/09/19 08:14:21;;;;;;;3.22;2.60;;;25.90;99.90;;;28.42;63.08;94579.00;2260524;55;25217;-56
2021/09/19 08:17:09;;;;;;;2.67;2.35;;;25.80;99.90;;;27.94;67.48;94578.00;2260515;55;25103;-55
2021/09/19 08:22:52;;;;;;;2.92;2.72;;;25.50;99.90;;;27.65;67.89;94571.00;2248898;55;32634;-58
2021/09/19 08:25:39;;;;;;;3.10;2.58;;;25.10;99.90;;;27.49;72.54;94582.00;2248052;55;26214;-56
2021/09/19 08:28:25;;;;;;;3.42;2.35;;;25.40;99.90;;;27.97;66.87;94583.00;2223876;55;25158;-56
2021/09/19 08:31:12;;;;;;;2.60;2.40;;;25.00;99.90;;;27.53;72.66;94581.00;2218177;56;26616;-56
2021/09/19 08:33:58;;;;;;;2.50;2.30;;;25.80;99.90;;;28.78;68.49;94583.00;2385014;56;25667;-57
2021/09/19 08:36:45;;;;;;;2.70;2.50;;;26.40;99.90;;;29.65;65.51;94580.00;2309935;55;25095;-56
2021/09/19 08:39:32;;;;;;;2.47;2.17;;;26.60;99.90;;;29.62;59.00;94586.00;2235055;55;25401;-56
2021/09/19 08:42:19;;;;;;;3.58;2.40;;;26.90;99.90;;;30.05;57.48;94587.00;2235919;56;25194;-56
2021/09/19 08:45:09;;;;;;;3.35;2.12;;;26.40;99.90;;;28.76;60.73;94590.00;2352774;55;25115;-56
2021/09/19 08:47:56;;;;;;;2.40;2.20;;;26.00;99.90;;;28.41;61.27;94596.00;2484073;55;25120;-56
2021/09/19 08:50:42;;;;;;;2.50;2.30;;;26.10;99.90;;;28.68;67.90;94586.00;2259561;55;25091;-56
2021/09/19 08:53:31;;;;;;;2.35;2.15;;;26.60;99.90;;;29.52;59.28;94576.00;2437532;55;25111;-56
2021/09/19 08:59:20;;;;;;;2.78;2.20;;;26.90;99.90;;;29.54;57.13;94579.00;2253623;55;32321;-56
2021/09/19 09:02:07;;;;;;;2.67;2.28;;;26.80;99.90;;;29.58;53.46;94583.00;2263654;55;25621;-56
2021/09/19 09:04:58;;;;;;;2.37;2.17;;;26.40;99.90;;;28.77;62.94;94581.00;2255820;55;25159;-56
2021/09/19 09:07:46;;;;;;;2.58;2.30;;;26.50;99.90;;;30.16;54.65;94579.00;2259091;55;25172;-55
2021/09/19 09:10:37;;;;;;;2.65;2.12;;;26.90;99.90;;;29.86;55.33;94581.00;2488108;55;25136;-57
2021/09/19 09:13:27;;;;;;;2.72;2.50;;;27.00;99.90;;;30.26;50.96;94580.00;2260234;56;25167;-56
2021/09/19 09:16:16;;;;;;;2.33;2.12;;;26.70;99.90;;;29.53;51.78;94582.00;2260863;56;25084;-56
2021/09/19 09:19:09;;;;;;;2.33;2.12;;;26.50;99.90;;;29.29;58.97;94583.00;2260236;56;25510;-56
2021/09/19 09:22:03;;;;;;;2.55;2.35;;;26.60;99.90;;;29.77;60.72;94583.00;2261119;56;25260;-57
2021/09/19 09:25:12;;;;;;;2.15;1.95;;;26.50;99.90;;;29.35;51.74;94582.00;2418444;55;26526;-56
2021/09/19 09:27:58;;;;;;;2.80;2.60;;;26.50;99.90;;;29.86;52.10;94575.00;2374151;55;25135;-55
2021/09/19 09:33:59;;;;;;;2.65;2.42;;;26.90;99.90;;;29.42;52.97;94568.00;2246080;54;32364;-57
2021/09/19 09:36:50;;;;;;;2.53;2.30;;;26.00;99.90;;;28.78;62.87;94564.00;2258514;54;26188;-56
2021/09/19 09:39:38;;;;;;;3.00;2.50;;;26.40;99.90;;;29.71;55.76;94576.00;2266921;56;25159;-55
2021/09/19 09:42:24;;;;;;;3.12;2.45;;;27.50;99.90;;;31.54;50.66;94572.00;2269447;55;25066;-56
2021/09/19 09:45:12;;;;;;;2.60;2.40;;;26.60;99.90;;;29.62;54.38;94575.00;2266697;55;26501;-55
2021/09/19 09:47:59;;;;;;;3.30;3.00;;;27.40;99.90;;;31.19;53.13;94577.00;2435888;55;25171;-57
2021/09/19 09:50:46;;;;;;;2.90;2.70;;;27.90;99.90;;;31.14;46.70;94569.00;2470190;55;25086;-59
2021/09/19 09:53:32;;;;;;;2.92;2.72;;;28.00;99.90;;;31.27;48.49;94569.00;2482013;55;25098;-56
2021/09/19 09:56:20;;;;;;;2.70;2.45;;;28.40;99.90;;;31.79;47.83;94572.00;2276210;56;25559;-56
2021/09/19 09:59:08;;;;;;;3.53;2.50;;;28.30;99.90;;;32.27;43.46;94572.00;2356335;55;25122;-56
2021/09/19 10:01:59;;;;;;;2.62;2.42;;;29.10;99.90;;;32.94;43.75;94569.00;2287560;55;25503;-58
2021/09/19 10:04:47;;;;;;;3.00;2.80;;;28.60;99.90;;;32.43;45.02;94568.00;2388492;55;25143;-56
2021/09/19 10:07:36;;;;;;;2.53;2.33;;;28.60;99.90;;;33.13;41.80;94564.00;2265535;55;25653;-56
2021/09/19 10:10:26;;;;;;;2.90;2.70;;;28.90;99.90;;;32.40;42.22;94568.00;2258875;55;25135;-55
2021/09/19 10:13:14;;;;;;;3.22;2.50;;;29.20;99.90;;;33.10;39.83;94569.00;2266354;55;25572;-56
2021/09/19 10:16:01;;;;;;;2.58;2.37;;;29.30;99.90;;;33.90;39.78;94561.00;2244121;55;25195;-56
2021/09/19 10:18:49;;;;;;;2.90;2.70;;;28.80;99.90;;;32.55;40.12;94563.00;2439942;56;25605;-56
2021/09/19 10:21:36;;;;;;;3.15;2.90;;;28.90;99.90;;;31.70;43.14;94571.00;2483245;55;25096;-56
2021/09/19 10:24:23;;;;;;;2.67;2.47;;;29.00;99.90;;;32.25;44.22;94561.00;2491563;55;26624;-55
2021/09/19 10:27:22;;;;;;;2.80;2.55;;;28.90;99.90;;;33.04;40.09;94558.00;2491771;55;25595;-55
2021/09/19 10:30:12;;;;;;;2.60;2.40;;;28.30;99.90;;;31.34;40.73;94561.00;2263176;56;26591;-55
2021/09/19 10:33:00;;;;;;;2.60;2.40;;;28.00;99.90;;;31.47;46.46;94560.00;2279840;55;25076;-59
2021/09/19 10:35:51;;;;;;;2.87;2.45;;;28.20;99.90;;;32.13;42.87;94551.00;2262463;56;25484;-58
2021/09/19 10:38:40;;;;;;;3.03;2.60;;;28.40;99.90;;;32.22;40.87;94556.00;2331706;55;25141;-58
2021/09/19 10:44:35;;;;;;;3.55;2.83;;;27.80;99.90;;;31.10;43.54;94553.00;2219805;55;32339;-56
2021/09/19 10:47:35;;;;;;;3.58;2.47;;;27.90;99.90;;;31.78;44.48;94557.00;2214277;57;25134;-56
2021/09/19 10:50:36;;;;;;;3.22;2.92;;;28.20;99.90;;;32.67;39.24;94561.00;2210167;57;25134;-55
2021/09/19 10:53:26;;;;;;;3.55;3.22;;;28.40;99.90;;;32.46;41.84;94565.00;2222187;56;25099;-56
2021/09/19 10:56:12;;;;;;;3.17;2.97;;;28.00;99.90;;;31.77;41.48;94564.00;2212531;56;25187;-56
2021/09/19 10:58:59;;;;;;;3.62;3.33;;;27.80;99.90;;;31.21;41.58;94573.00;2190546;57;26178;-56
2021/09/19 11:01:45;;;;;;;3.30;3.08;;;26.60;99.90;;;28.43;45.98;94581.00;2404663;57;26112;-58
2021/09/19 11:04:34;;;;;;;3.47;3.22;;;25.90;99.90;;;28.66;47.56;94575.00;2190559;58;25516;-55
2021/09/19 11:07:21;;;;;;;4.00;3.58;;;24.60;99.90;;;26.13;58.75;94580.00;2191224;58;25140;-57
2021/09/19 11:10:12;;;;;;;5.87;3.55;;;23.40;99.90;;;24.65;70.27;94582.00;2404594;57;26231;-57
2021/09/19 11:13:17;;;;;;;4.00;3.70;;;23.20;99.90;;;25.22;76.02;94581.00;2191103;58;26457;-57
2021/09/19 11:19:24;;;;;;;30.83;19.35;;;21.10;99.90;;;21.85;100.00;94579.00;2252774;54;33562;-57
2021/09/19 11:22:24;;;;;;;12.93;9.00;;;20.70;99.90;;;21.41;100.00;94579.00;2265232;55;26165;-57
2021/09/19 11:25:13;;;;;;;6.90;6.20;;;20.10;99.90;;;20.90;100.00;94577.00;2259259;55;27010;-57
2021/09/19 11:28:01;;;;;;;5.72;5.20;;;19.70;99.90;;;20.25;100.00;94580.00;2259672;55;26293;-57
2021/09/19 11:30:56;;;;;;;8.90;8.10;;;19.50;99.90;;;20.07;100.00;94584.00;2265719;56;26114;-57
2021/09/19 11:33:42;;;;;;;11.27;10.27;;;19.30;99.90;;;19.91;100.00;94584.00;2459929;55;26544;-57
2021/09/19 11:36:31;;;;;;;9.95;8.93;;;19.20;99.90;;;19.83;100.00;94585.00;2235556;56;26203;-58
2021/09/19 11:39:19;;;;;;;7.10;6.40;;;19.00;99.90;;;19.58;100.00;94594.00;2259479;56;26657;-58
2021/09/19 11:45:14;;;;;;;10.90;6.47;;;19.00;99.90;;;19.72;100.00;94582.00;2229452;55;33173;-56
2021/09/19 11:48:01;;;;;;;7.28;5.68;;;18.90;99.90;;;19.56;100.00;94585.00;2425279;56;26619;-59
2021/09/19 11:50:48;;;;;;;9.20;6.05;;;18.90;99.90;;;19.50;100.00;94588.00;2211013;56;26168;-58
2021/09/19 11:53:35;;;;;;;6.30;5.70;;;18.90;99.90;;;19.49;100.00;94587.00;2439717;56;26119;-57
2021/09/19 11:56:23;;;;;;;5.30;4.70;;;18.80;99.90;;;19.64;100.00;94583.00;2444144;56;26549;-56
2021/09/19 11:59:14;;;;;;;7.87;7.03;;;18.70;99.90;;;19.29;100.00;94589.00;2444035;56;26202;-57
2021/09/19 12:02:02;;;;;;;6.85;6.20;;;18.70;99.90;;;19.20;100.00;94582.00;2226963;56;26177;-56
2021/09/19 12:04:49;;;;;;;5.62;5.12;;;18.70;99.90;;;19.34;100.00;94587.00;2230584;55;26290;-57
2021/09/19 12:07:35;;;;;;;6.40;5.30;;;19.00;99.90;;;19.64;100.00;94588.00;2456968;56;26556;-57
2021/09/19 12:10:26;;;;;;;6.12;4.95;;;19.20;99.90;;;20.02;100.00;94586.00;2244371;56;26173;-56
2021/09/19 12:13:22;;;;;;;5.97;5.37;;;19.30;99.90;;;20.20;100.00;94585.00;2458983;56;26177;-57
2021/09/19 12:16:12;;;;;;;6.28;5.68;;;19.00;99.90;;;19.62;100.00;94590.00;2235946;58;26660;-56
2021/09/19 12:18:58;;;;;;;6.40;4.85;;;18.70;99.90;;;19.31;100.00;94587.00;2235172;57;26647;-56
2021/09/19 12:24:58;;;;;;;8.43;7.55;;;18.20;99.90;;;18.84;100.00;94589.00;2217504;55;33417;-56